sensor_id;sensor_type;location;lat;lon;timestamp;P1;durP1;ratioP1;P2;durP2;ratioP2
20669;SDS011;10494;50.868;4.180;2022-10-16T00:01:22;2.05;;;1.27;;
20669;SDS011;10494;50.868;4.180;2022-10-16T00:03:50;2.38;;;1.40;;
20669;SDS011;10494;50.868;4.180;2022-10-16T00:06:16;1.73;;;1.20;;
20669;SDS011;10494;50.868;4.180;2022-10-16T00:08:43;1.95;;;1.40;;
20669;SDS011;10494;50.868;4.180;2022-10-16T00:11:11;6.93;;;1.83;;
20669;SDS011;10494;50.868;4.180;2022-10-16T00:13:42;2.00;;;1.35;;
20669;SDS011;10494;50.868;4.180;2022-10-16T00:16:08;4.47;;;1.42;;
20669;SDS011;10494;50.868;4.180;2022-10-16T00:18:35;3.38;;;1.50;;
20669;SDS011;10494;50.868;4.180;2022-10-16T00:21:06;3.58;;;1.40;;
20669;SDS011;10494;50.868;4.180;2022-10-16T00:23:33;2.67;;;1.50;;
20669;SDS011;10494;50.868;4.180;2022-10-16T00:25:59;2.28;;;1.55;;
20669;SDS011;10494;50.868;4.180;2022-10-16T00:28:28;3.63;;;1.58;;
20669;SDS011;10494;50.868;4.180;2022-10-16T00:30:55;1.88;;;1.50;;
20669;SDS011;10494;50.868;4.180;2022-10-16T00:33:20;3.90;;;1.48;;
20669;SDS011;10494;50.868;4.180;2022-10-16T00:35:47;2.05;;;1.58;;
20669;SDS011;10494;50.868;4.180;2022-10-16T00:38:13;3.35;;;1.85;;
20669;SDS011;10494;50.868;4.180;2022-10-16T00:40:39;3.13;;;1.63;;
20669;SDS011;10494;50.868;4.180;2022-10-16T00:43:32;5.97;;;1.60;;
20669;SDS011;10494;50.868;4.180;2022-10-16T00:46:02;2.55;;;1.70;;
20669;SDS011;10494;50.868;4.180;2022-10-16T00:48:29;3.20;;;2.20;;
20669;SDS011;10494;50.868;4.180;2022-10-16T00:50:56;4.68;;;1.55;;
20669;SDS011;10494;50.868;4.180;2022-10-16T00:53:22;4.80;;;1.75;;
20669;SDS011;10494;50.868;4.180;2022-10-16T00:55:49;5.88;;;1.65;;
20669;SDS011;10494;50.868;4.180;2022-10-16T00:58:15;3.70;;;1.70;;
20669;SDS011;10494;50.868;4.180;2022-10-16T01:00:41;2.78;;;1.83;;
20669;SDS011;10494;50.868;4.180;2022-10-16T01:03:22;2.38;;;1.65;;
20669;SDS011;10494;50.868;4.180;2022-10-16T01:06:09;4.40;;;2.00;;
20669;SDS011;10494;50.868;4.180;2022-10-16T01:14:36;3.25;;;1.90;;
20669;SDS011;10494;50.868;4.180;2022-10-16T01:20:03;2.05;;;1.50;;
20669;SDS011;10494;50.868;4.180;2022-10-16T01:28:12;5.03;;;1.80;;
20669;SDS011;10494;50.868;4.180;2022-10-16T01:30:40;5.00;;;2.00;;
20669;SDS011;10494;50.868;4.180;2022-10-16T01:33:10;3.95;;;1.80;;
20669;SDS011;10494;50.868;4.180;2022-10-16T01:35:42;6.97;;;1.83;;
20669;SDS011;10494;50.868;4.180;2022-10-16T01:38:23;5.95;;;1.95;;
20669;SDS011;10494;50.868;4.180;2022-10-16T01:41:04;5.78;;;2.08;;
20669;SDS011;10494;50.868;4.180;2022-10-16T01:43:38;4.53;;;2.10;;
20669;SDS011;10494;50.868;4.180;2022-10-16T01:46:08;4.20;;;2.03;;
20669;SDS011;10494;50.868;4.180;2022-10-16T01:48:35;4.88;;;1.90;;
20669;SDS011;10494;50.868;4.180;2022-10-16T01:51:06;3.72;;;1.50;;
20669;SDS011;10494;50.868;4.180;2022-10-16T01:53:34;6.28;;;1.92;;
20669;SDS011;10494;50.868;4.180;2022-10-16T01:56:00;5.10;;;2.03;;
20669;SDS011;10494;50.868;4.180;2022-10-16T01:58:30;3.13;;;1.90;;
20669;SDS011;10494;50.868;4.180;2022-10-16T02:00:59;4.72;;;2.60;;
20669;SDS011;10494;50.868;4.180;2022-10-16T02:03:28;4.57;;;2.08;;
20669;SDS011;10494;50.868;4.180;2022-10-16T02:05:54;3.20;;;2.17;;
20669;SDS011;10494;50.868;4.180;2022-10-16T02:08:23;3.78;;;2.03;;
20669;SDS011;10494;50.868;4.180;2022-10-16T02:10:53;3.08;;;1.92;;
20669;SDS011;10494;50.868;4.180;2022-10-16T02:13:39;2.78;;;2.08;;
20669;SDS011;10494;50.868;4.180;2022-10-16T02:16:32;5.40;;;2.10;;
20669;SDS011;10494;50.868;4.180;2022-10-16T02:18:59;3.90;;;2.35;;
20669;SDS011;10494;50.868;4.180;2022-10-16T02:21:25;2.53;;;2.22;;
20669;SDS011;10494;50.868;4.180;2022-10-16T02:24:00;2.50;;;1.95;;
20669;SDS011;10494;50.868;4.180;2022-10-16T02:26:50;3.22;;;2.17;;
20669;SDS011;10494;50.868;4.180;2022-10-16T02:29:22;2.53;;;1.92;;
20669;SDS011;10494;50.868;4.180;2022-10-16T02:31:52;3.45;;;2.28;;
20669;SDS011;10494;50.868;4.180;2022-10-16T02:34:22;8.88;;;2.25;;
20669;SDS011;10494;50.868;4.180;2022-10-16T02:36:50;5.70;;;2.03;;
20669;SDS011;10494;50.868;4.180;2022-10-16T02:39:18;6.40;;;2.55;;
20669;SDS011;10494;50.868;4.180;2022-10-16T02:41:45;6.25;;;2.58;;
20669;SDS011;10494;50.868;4.180;2022-10-16T02:44:11;5.07;;;2.78;;
20669;SDS011;10494;50.868;4.180;2022-10-16T02:46:36;9.68;;;2.88;;
20669;SDS011;10494;50.868;4.180;2022-10-16T02:49:02;5.25;;;2.88;;
20669;SDS011;10494;50.868;4.180;2022-10-16T02:51:28;4.15;;;2.75;;
20669;SDS011;10494;50.868;4.180;2022-10-16T02:53:53;6.22;;;3.40;;
20669;SDS011;10494;50.868;4.180;2022-10-16T02:56:19;4.68;;;2.85;;
20669;SDS011;10494;50.868;4.180;2022-10-16T02:58:45;4.75;;;2.88;;
20669;SDS011;10494;50.868;4.180;2022-10-16T03:01:11;3.58;;;2.63;;
20669;SDS011;10494;50.868;4.180;2022-10-16T03:03:37;6.30;;;2.72;;
20669;SDS011;10494;50.868;4.180;2022-10-16T03:06:03;3.30;;;2.45;;
20669;SDS011;10494;50.868;4.180;2022-10-16T03:08:29;6.32;;;2.72;;
20669;SDS011;10494;50.868;4.180;2022-10-16T03:10:55;4.20;;;2.65;;
20669;SDS011;10494;50.868;4.180;2022-10-16T03:13:20;5.18;;;2.80;;
20669;SDS011;10494;50.868;4.180;2022-10-16T03:15:46;5.13;;;2.50;;
20669;SDS011;10494;50.868;4.180;2022-10-16T03:18:11;4.80;;;2.65;;
20669;SDS011;10494;50.868;4.180;2022-10-16T03:20:37;5.68;;;2.80;;
20669;SDS011;10494;50.868;4.180;2022-10-16T03:23:03;4.07;;;2.60;;
20669;SDS011;10494;50.868;4.180;2022-10-16T03:25:28;6.95;;;2.63;;
20669;SDS011;10494;50.868;4.180;2022-10-16T03:27:54;5.93;;;3.10;;
20669;SDS011;10494;50.868;4.180;2022-10-16T03:30:19;10.77;;;2.85;;
20669;SDS011;10494;50.868;4.180;2022-10-16T03:32:45;5.78;;;2.40;;
20669;SDS011;10494;50.868;4.180;2022-10-16T03:35:11;3.97;;;2.28;;
20669;SDS011;10494;50.868;4.180;2022-10-16T03:37:37;4.70;;;2.25;;
20669;SDS011;10494;50.868;4.180;2022-10-16T03:40:03;3.80;;;2.40;;
20669;SDS011;10494;50.868;4.180;2022-10-16T03:42:29;4.93;;;2.38;;
20669;SDS011;10494;50.868;4.180;2022-10-16T03:44:55;4.15;;;2.67;;
20669;SDS011;10494;50.868;4.180;2022-10-16T03:47:20;4.20;;;2.70;;
20669;SDS011;10494;50.868;4.180;2022-10-16T03:49:48;4.47;;;2.60;;
20669;SDS011;10494;50.868;4.180;2022-10-16T03:52:14;5.85;;;2.55;;
20669;SDS011;10494;50.868;4.180;2022-10-16T03:54:40;4.95;;;3.00;;
20669;SDS011;10494;50.868;4.180;2022-10-16T03:57:05;5.22;;;2.63;;
20669;SDS011;10494;50.868;4.180;2022-10-16T03:59:32;4.00;;;2.85;;
20669;SDS011;10494;50.868;4.180;2022-10-16T04:01:57;8.32;;;2.85;;
20669;SDS011;10494;50.868;4.180;2022-10-16T04:04:23;4.22;;;2.90;;
20669;SDS011;10494;50.868;4.180;2022-10-16T04:06:50;4.90;;;2.40;;
20669;SDS011;10494;50.868;4.180;2022-10-16T04:09:16;3.97;;;2.58;;
20669;SDS011;10494;50.868;4.180;2022-10-16T04:11:41;6.30;;;2.47;;
20669;SDS011;10494;50.868;4.180;2022-10-16T04:14:07;9.35;;;2.70;;
20669;SDS011;10494;50.868;4.180;2022-10-16T04:16:33;6.30;;;2.58;;
20669;SDS011;10494;50.868;4.180;2022-10-16T04:18:58;3.33;;;2.20;;
20669;SDS011;10494;50.868;4.180;2022-10-16T04:21:24;4.25;;;2.17;;
20669;SDS011;10494;50.868;4.180;2022-10-16T04:23:50;7.00;;;2.60;;
20669;SDS011;10494;50.868;4.180;2022-10-16T04:26:15;4.88;;;2.63;;
20669;SDS011;10494;50.868;4.180;2022-10-16T04:28:41;6.97;;;2.60;;
20669;SDS011;10494;50.868;4.180;2022-10-16T04:31:06;5.40;;;2.47;;
20669;SDS011;10494;50.868;4.180;2022-10-16T04:33:32;6.30;;;2.63;;
20669;SDS011;10494;50.868;4.180;2022-10-16T04:35:59;3.03;;;2.22;;
20669;SDS011;10494;50.868;4.180;2022-10-16T04:38:26;4.15;;;2.38;;
20669;SDS011;10494;50.868;4.180;2022-10-16T04:40:52;4.97;;;2.55;;
20669;SDS011;10494;50.868;4.180;2022-10-16T04:43:17;4.70;;;2.42;;
20669;SDS011;10494;50.868;4.180;2022-10-16T04:45:43;4.13;;;2.67;;
20669;SDS011;10494;50.868;4.180;2022-10-16T04:48:09;4.63;;;2.35;;
20669;SDS011;10494;50.868;4.180;2022-10-16T04:50:35;3.63;;;2.30;;
20669;SDS011;10494;50.868;4.180;2022-10-16T04:53:00;5.30;;;2.42;;
20669;SDS011;10494;50.868;4.180;2022-10-16T04:55:26;3.17;;;2.25;;
20669;SDS011;10494;50.868;4.180;2022-10-16T04:57:52;8.68;;;2.72;;
20669;SDS011;10494;50.868;4.180;2022-10-16T05:00:17;4.32;;;1.88;;
20669;SDS011;10494;50.868;4.180;2022-10-16T05:02:43;7.03;;;2.35;;
20669;SDS011;10494;50.868;4.180;2022-10-16T05:05:08;5.22;;;2.22;;
20669;SDS011;10494;50.868;4.180;2022-10-16T05:07:34;4.95;;;2.38;;
20669;SDS011;10494;50.868;4.180;2022-10-16T05:10:00;6.72;;;2.40;;
20669;SDS011;10494;50.868;4.180;2022-10-16T05:12:25;5.13;;;2.22;;
20669;SDS011;10494;50.868;4.180;2022-10-16T05:14:51;8.13;;;2.13;;
20669;SDS011;10494;50.868;4.180;2022-10-16T05:17:17;3.42;;;2.40;;
20669;SDS011;10494;50.868;4.180;2022-10-16T05:19:42;5.47;;;2.55;;
20669;SDS011;10494;50.868;4.180;2022-10-16T05:22:08;4.13;;;2.38;;
20669;SDS011;10494;50.868;4.180;2022-10-16T05:24:34;6.93;;;2.83;;
20669;SDS011;10494;50.868;4.180;2022-10-16T05:26:59;6.00;;;2.65;;
20669;SDS011;10494;50.868;4.180;2022-10-16T05:29:25;4.82;;;2.60;;
20669;SDS011;10494;50.868;4.180;2022-10-16T05:31:51;5.13;;;1.88;;
20669;SDS011;10494;50.868;4.180;2022-10-16T05:34:18;5.75;;;2.70;;
20669;SDS011;10494;50.868;4.180;2022-10-16T05:36:44;7.30;;;2.70;;
20669;SDS011;10494;50.868;4.180;2022-10-16T05:39:10;5.85;;;2.75;;
20669;SDS011;10494;50.868;4.180;2022-10-16T05:41:36;5.43;;;2.65;;
20669;SDS011;10494;50.868;4.180;2022-10-16T05:44:03;5.93;;;2.80;;
20669;SDS011;10494;50.868;4.180;2022-10-16T05:46:30;4.72;;;2.72;;
20669;SDS011;10494;50.868;4.180;2022-10-16T05:48:57;6.53;;;2.92;;
20669;SDS011;10494;50.868;4.180;2022-10-16T05:51:22;5.10;;;2.70;;
20669;SDS011;10494;50.868;4.180;2022-10-16T05:53:48;4.65;;;2.38;;
20669;SDS011;10494;50.868;4.180;2022-10-16T05:56:14;4.93;;;3.30;;
20669;SDS011;10494;50.868;4.180;2022-10-16T05:58:40;5.28;;;2.90;;
20669;SDS011;10494;50.868;4.180;2022-10-16T06:01:08;6.03;;;2.53;;
20669;SDS011;10494;50.868;4.180;2022-10-16T06:03:35;6.32;;;2.50;;
20669;SDS011;10494;50.868;4.180;2022-10-16T06:06:11;9.73;;;3.05;;
20669;SDS011;10494;50.868;4.180;2022-10-16T06:08:39;10.60;;;2.80;;
20669;SDS011;10494;50.868;4.180;2022-10-16T06:11:08;7.40;;;2.90;;
20669;SDS011;10494;50.868;4.180;2022-10-16T06:13:35;7.20;;;2.70;;
20669;SDS011;10494;50.868;4.180;2022-10-16T06:16:01;4.38;;;2.63;;
20669;SDS011;10494;50.868;4.180;2022-10-16T06:18:28;7.03;;;2.65;;
20669;SDS011;10494;50.868;4.180;2022-10-16T06:20:54;5.20;;;2.78;;
20669;SDS011;10494;50.868;4.180;2022-10-16T06:23:21;5.80;;;2.85;;
20669;SDS011;10494;50.868;4.180;2022-10-16T06:25:47;8.50;;;2.58;;
20669;SDS011;10494;50.868;4.180;2022-10-16T06:28:13;6.13;;;2.65;;
20669;SDS011;10494;50.868;4.180;2022-10-16T06:30:39;7.68;;;2.60;;
20669;SDS011;10494;50.868;4.180;2022-10-16T06:33:05;6.65;;;2.90;;
20669;SDS011;10494;50.868;4.180;2022-10-16T06:35:31;9.02;;;2.72;;
20669;SDS011;10494;50.868;4.180;2022-10-16T06:37:57;7.57;;;2.90;;
20669;SDS011;10494;50.868;4.180;2022-10-16T06:40:23;6.75;;;2.67;;
20669;SDS011;10494;50.868;4.180;2022-10-16T06:42:49;5.70;;;2.85;;
20669;SDS011;10494;50.868;4.180;2022-10-16T06:45:15;6.55;;;2.60;;
20669;SDS011;10494;50.868;4.180;2022-10-16T06:47:40;6.07;;;2.63;;
20669;SDS011;10494;50.868;4.180;2022-10-16T06:50:06;10.10;;;2.50;;
20669;SDS011;10494;50.868;4.180;2022-10-16T06:52:32;7.70;;;3.20;;
20669;SDS011;10494;50.868;4.180;2022-10-16T06:54:58;5.72;;;3.05;;
20669;SDS011;10494;50.868;4.180;2022-10-16T06:57:24;6.30;;;2.45;;
20669;SDS011;10494;50.868;4.180;2022-10-16T06:59:50;6.22;;;2.30;;
20669;SDS011;10494;50.868;4.180;2022-10-16T07:02:16;3.90;;;2.30;;
20669;SDS011;10494;50.868;4.180;2022-10-16T07:04:41;5.22;;;2.55;;
20669;SDS011;10494;50.868;4.180;2022-10-16T07:07:07;7.63;;;2.58;;
20669;SDS011;10494;50.868;4.180;2022-10-16T07:09:32;7.28;;;2.80;;
20669;SDS011;10494;50.868;4.180;2022-10-16T07:11:58;6.88;;;2.65;;
20669;SDS011;10494;50.868;4.180;2022-10-16T07:14:23;4.38;;;2.60;;
20669;SDS011;10494;50.868;4.180;2022-10-16T07:16:49;4.88;;;2.60;;
20669;SDS011;10494;50.868;4.180;2022-10-16T07:19:15;6.07;;;2.42;;
20669;SDS011;10494;50.868;4.180;2022-10-16T07:21:42;5.63;;;2.28;;
20669;SDS011;10494;50.868;4.180;2022-10-16T07:24:18;3.97;;;2.58;;
20669;SDS011;10494;50.868;4.180;2022-10-16T07:26:44;3.67;;;2.50;;
20669;SDS011;10494;50.868;4.180;2022-10-16T07:29:17;5.00;;;2.03;;
20669;SDS011;10494;50.868;4.180;2022-10-16T07:31:45;6.38;;;2.05;;
20669;SDS011;10494;50.868;4.180;2022-10-16T07:34:11;3.63;;;1.85;;
20669;SDS011;10494;50.868;4.180;2022-10-16T07:36:38;4.35;;;1.90;;
20669;SDS011;10494;50.868;4.180;2022-10-16T07:39:04;5.57;;;1.80;;
20669;SDS011;10494;50.868;4.180;2022-10-16T07:41:30;4.30;;;1.85;;
20669;SDS011;10494;50.868;4.180;2022-10-16T07:43:58;4.18;;;1.80;;
20669;SDS011;10494;50.868;4.180;2022-10-16T07:46:27;9.43;;;1.65;;
20669;SDS011;10494;50.868;4.180;2022-10-16T07:48:53;5.75;;;1.73;;
20669;SDS011;10494;50.868;4.180;2022-10-16T07:51:21;4.47;;;1.58;;
20669;SDS011;10494;50.868;4.180;2022-10-16T07:53:47;4.57;;;1.95;;
20669;SDS011;10494;50.868;4.180;2022-10-16T07:56:14;5.50;;;1.70;;
20669;SDS011;10494;50.868;4.180;2022-10-16T07:58:41;3.72;;;1.67;;
20669;SDS011;10494;50.868;4.180;2022-10-16T08:01:07;5.20;;;1.38;;
20669;SDS011;10494;50.868;4.180;2022-10-16T08:03:38;4.95;;;1.55;;
20669;SDS011;10494;50.868;4.180;2022-10-16T08:06:06;4.40;;;1.30;;
20669;SDS011;10494;50.868;4.180;2022-10-16T08:08:32;3.45;;;1.50;;
20669;SDS011;10494;50.868;4.180;2022-10-16T08:10:57;3.78;;;1.50;;
20669;SDS011;10494;50.868;4.180;2022-10-16T08:13:23;3.03;;;1.80;;
20669;SDS011;10494;50.868;4.180;2022-10-16T08:15:49;6.25;;;1.60;;
20669;SDS011;10494;50.868;4.180;2022-10-16T08:18:14;4.70;;;1.48;;
20669;SDS011;10494;50.868;4.180;2022-10-16T08:20:40;3.38;;;1.55;;
20669;SDS011;10494;50.868;4.180;2022-10-16T08:23:07;3.63;;;1.48;;
20669;SDS011;10494;50.868;4.180;2022-10-16T08:25:34;7.97;;;1.50;;
20669;SDS011;10494;50.868;4.180;2022-10-16T08:28:02;3.83;;;1.45;;
20669;SDS011;10494;50.868;4.180;2022-10-16T08:30:29;4.68;;;1.40;;
20669;SDS011;10494;50.868;4.180;2022-10-16T08:32:55;5.68;;;1.60;;
20669;SDS011;10494;50.868;4.180;2022-10-16T08:35:20;6.75;;;1.35;;
20669;SDS011;10494;50.868;4.180;2022-10-16T08:37:46;25.23;;;2.42;;
20669;SDS011;10494;50.868;4.180;2022-10-16T08:40:34;4.63;;;1.50;;
20669;SDS011;10494;50.868;4.180;2022-10-16T08:50:55;7.00;;;1.52;;
20669;SDS011;10494;50.868;4.180;2022-10-16T08:53:26;7.10;;;1.42;;
20669;SDS011;10494;50.868;4.180;2022-10-16T08:55:56;4.97;;;1.25;;
20669;SDS011;10494;50.868;4.180;2022-10-16T08:58:26;4.03;;;1.20;;
20669;SDS011;10494;50.868;4.180;2022-10-16T09:00:54;4.07;;;1.17;;
20669;SDS011;10494;50.868;4.180;2022-10-16T09:08:43;4.38;;;1.30;;
20669;SDS011;10494;50.868;4.180;2022-10-16T09:16:53;9.20;;;2.17;;
20669;SDS011;10494;50.868;4.180;2022-10-16T09:21:53;3.53;;;1.40;;
20669;SDS011;10494;50.868;4.180;2022-10-16T09:24:21;3.95;;;1.20;;
20669;SDS011;10494;50.868;4.180;2022-10-16T09:26:50;4.40;;;1.40;;
20669;SDS011;10494;50.868;4.180;2022-10-16T09:29:16;12.95;;;2.17;;
20669;SDS011;10494;50.868;4.180;2022-10-16T09:31:45;6.35;;;1.10;;
20669;SDS011;10494;50.868;4.180;2022-10-16T09:34:33;5.38;;;1.25;;
20669;SDS011;10494;50.868;4.180;2022-10-16T09:36:59;4.47;;;1.23;;
20669;SDS011;10494;50.868;4.180;2022-10-16T09:39:28;6.85;;;1.45;;
20669;SDS011;10494;50.868;4.180;2022-10-16T09:41:53;4.63;;;1.10;;
20669;SDS011;10494;50.868;4.180;2022-10-16T09:49:53;7.10;;;1.80;;
20669;SDS011;10494;50.868;4.180;2022-10-16T09:52:26;5.50;;;1.50;;
20669;SDS011;10494;50.868;4.180;2022-10-16T09:54:53;22.40;;;2.50;;
20669;SDS011;10494;50.868;4.180;2022-10-16T09:57:19;3.90;;;1.33;;
20669;SDS011;10494;50.868;4.180;2022-10-16T09:59:51;5.15;;;1.60;;
20669;SDS011;10494;50.868;4.180;2022-10-16T10:02:19;5.72;;;1.40;;
20669;SDS011;10494;50.868;4.180;2022-10-16T10:04:53;4.57;;;1.33;;
20669;SDS011;10494;50.868;4.180;2022-10-16T10:07:26;8.52;;;1.48;;
20669;SDS011;10494;50.868;4.180;2022-10-16T10:09:57;9.07;;;1.50;;
20669;SDS011;10494;50.868;4.180;2022-10-16T10:12:29;5.85;;;1.33;;
20669;SDS011;10494;50.868;4.180;2022-10-16T10:15:06;5.65;;;1.48;;
20669;SDS011;10494;50.868;4.180;2022-10-16T10:17:46;5.13;;;1.17;;
20669;SDS011;10494;50.868;4.180;2022-10-16T10:20:30;4.63;;;1.60;;
20669;SDS011;10494;50.868;4.180;2022-10-16T10:23:00;7.25;;;1.30;;
20669;SDS011;10494;50.868;4.180;2022-10-16T10:29:04;5.00;;;1.48;;
20669;SDS011;10494;50.868;4.180;2022-10-16T10:31:39;3.80;;;1.45;;
20669;SDS011;10494;50.868;4.180;2022-10-16T10:34:26;6.93;;;1.50;;
20669;SDS011;10494;50.868;4.180;2022-10-16T10:40:13;4.18;;;1.30;;
20669;SDS011;10494;50.868;4.180;2022-10-16T10:46:05;6.32;;;1.25;;
20669;SDS011;10494;50.868;4.180;2022-10-16T10:51:01;7.30;;;1.27;;
20669;SDS011;10494;50.868;4.180;2022-10-16T10:56:19;2.95;;;0.90;;
20669;SDS011;10494;50.868;4.180;2022-10-16T10:59:22;7.28;;;1.13;;
20669;SDS011;10494;50.868;4.180;2022-10-16T11:02:03;4.88;;;1.30;;
20669;SDS011;10494;50.868;4.180;2022-10-16T11:07:32;7.05;;;1.60;;
20669;SDS011;10494;50.868;4.180;2022-10-16T11:10:04;4.03;;;0.98;;
20669;SDS011;10494;50.868;4.180;2022-10-16T11:16:13;7.03;;;1.17;;
20669;SDS011;10494;50.868;4.180;2022-10-16T11:22:21;5.90;;;1.20;;
20669;SDS011;10494;50.868;4.180;2022-10-16T11:27:41;4.82;;;1.30;;
20669;SDS011;10494;50.868;4.180;2022-10-16T11:30:17;5.80;;;1.45;;
20669;SDS011;10494;50.868;4.180;2022-10-16T11:35:41;5.35;;;1.30;;
20669;SDS011;10494;50.868;4.180;2022-10-16T11:38:15;4.13;;;1.00;;
20669;SDS011;10494;50.868;4.180;2022-10-16T11:40:51;7.13;;;1.00;;
20669;SDS011;10494;50.868;4.180;2022-10-16T11:43:25;7.28;;;1.20;;
20669;SDS011;10494;50.868;4.180;2022-10-16T11:45:55;2.67;;;0.93;;
20669;SDS011;10494;50.868;4.180;2022-10-16T11:48:47;5.30;;;1.23;;
20669;SDS011;10494;50.868;4.180;2022-10-16T11:54:07;8.80;;;1.02;;
20669;SDS011;10494;50.868;4.180;2022-10-16T11:56:46;4.40;;;1.00;;
20669;SDS011;10494;50.868;4.180;2022-10-16T11:59:22;6.97;;;1.30;;
20669;SDS011;10494;50.868;4.180;2022-10-16T12:01:51;5.80;;;1.00;;
20669;SDS011;10494;50.868;4.180;2022-10-16T12:04:29;3.97;;;0.80;;
20669;SDS011;10494;50.868;4.180;2022-10-16T12:07:08;2.88;;;1.05;;
20669;SDS011;10494;50.868;4.180;2022-10-16T12:09:40;2.35;;;0.88;;
20669;SDS011;10494;50.868;4.180;2022-10-16T12:12:26;4.93;;;1.20;;
20669;SDS011;10494;50.868;4.180;2022-10-16T12:17:53;6.75;;;1.23;;
20669;SDS011;10494;50.868;4.180;2022-10-16T12:20:27;5.38;;;1.23;;
20669;SDS011;10494;50.868;4.180;2022-10-16T12:22:57;3.92;;;1.38;;
20669;SDS011;10494;50.868;4.180;2022-10-16T12:25:34;4.45;;;1.30;;
20669;SDS011;10494;50.868;4.180;2022-10-16T12:30:40;3.60;;;1.10;;
20669;SDS011;10494;50.868;4.180;2022-10-16T12:35:52;5.60;;;1.52;;
20669;SDS011;10494;50.868;4.180;2022-10-16T12:40:54;2.50;;;1.25;;
20669;SDS011;10494;50.868;4.180;2022-10-16T12:46:20;12.48;;;1.60;;
20669;SDS011;10494;50.868;4.180;2022-10-16T12:51:37;3.83;;;1.40;;
20669;SDS011;10494;50.868;4.180;2022-10-16T12:54:13;2.75;;;1.15;;
20669;SDS011;10494;50.868;4.180;2022-10-16T13:08:11;5.75;;;1.38;;
20669;SDS011;10494;50.868;4.180;2022-10-16T13:22:01;4.55;;;0.90;;
20669;SDS011;10494;50.868;4.180;2022-10-16T13:25:17;6.10;;;1.27;;
20669;SDS011;10494;50.868;4.180;2022-10-16T13:30:18;5.57;;;1.00;;
20669;SDS011;10494;50.868;4.180;2022-10-16T13:33:02;3.20;;;1.20;;
20669;SDS011;10494;50.868;4.180;2022-10-16T13:35:33;2.83;;;1.13;;
20669;SDS011;10494;50.868;4.180;2022-10-16T13:40:59;5.47;;;1.23;;
20669;SDS011;10494;50.868;4.180;2022-10-16T13:43:43;5.80;;;1.40;;
20669;SDS011;10494;50.868;4.180;2022-10-16T13:46:21;2.85;;;1.08;;
20669;SDS011;10494;50.868;4.180;2022-10-16T13:48:59;5.30;;;1.20;;
20669;SDS011;10494;50.868;4.180;2022-10-16T13:51:27;5.43;;;1.10;;
20669;SDS011;10494;50.868;4.180;2022-10-16T13:53:54;5.22;;;1.20;;
20669;SDS011;10494;50.868;4.180;2022-10-16T13:56:22;3.85;;;1.10;;
20669;SDS011;10494;50.868;4.180;2022-10-16T13:59:03;5.50;;;1.40;;
20669;SDS011;10494;50.868;4.180;2022-10-16T14:01:34;5.43;;;1.25;;
20669;SDS011;10494;50.868;4.180;2022-10-16T14:04:10;6.38;;;1.20;;
20669;SDS011;10494;50.868;4.180;2022-10-16T14:06:43;6.43;;;1.23;;
20669;SDS011;10494;50.868;4.180;2022-10-16T14:09:18;2.63;;;1.00;;
20669;SDS011;10494;50.868;4.180;2022-10-16T14:11:52;4.28;;;1.25;;
20669;SDS011;10494;50.868;4.180;2022-10-16T14:19:48;7.43;;;1.20;;
20669;SDS011;10494;50.868;4.180;2022-10-16T14:22:22;6.05;;;1.67;;
20669;SDS011;10494;50.868;4.180;2022-10-16T14:27:43;5.22;;;1.38;;
20669;SDS011;10494;50.868;4.180;2022-10-16T14:32:41;8.60;;;1.50;;
20669;SDS011;10494;50.868;4.180;2022-10-16T14:35:23;5.10;;;1.40;;
20669;SDS011;10494;50.868;4.180;2022-10-16T14:37:57;5.15;;;1.10;;
20669;SDS011;10494;50.868;4.180;2022-10-16T14:40:28;9.27;;;1.48;;
20669;SDS011;10494;50.868;4.180;2022-10-16T14:42:55;8.13;;;1.60;;
20669;SDS011;10494;50.868;4.180;2022-10-16T14:45:23;5.22;;;1.25;;
20669;SDS011;10494;50.868;4.180;2022-10-16T14:47:52;6.07;;;1.48;;
20669;SDS011;10494;50.868;4.180;2022-10-16T14:50:20;10.65;;;1.25;;
20669;SDS011;10494;50.868;4.180;2022-10-16T14:52:46;7.00;;;1.48;;
20669;SDS011;10494;50.868;4.180;2022-10-16T14:55:12;8.95;;;1.70;;
20669;SDS011;10494;50.868;4.180;2022-10-16T14:57:39;9.32;;;1.55;;
20669;SDS011;10494;50.868;4.180;2022-10-16T15:00:09;4.10;;;1.38;;
20669;SDS011;10494;50.868;4.180;2022-10-16T15:02:41;6.28;;;1.70;;
20669;SDS011;10494;50.868;4.180;2022-10-16T15:05:24;14.15;;;2.20;;
20669;SDS011;10494;50.868;4.180;2022-10-16T15:07:51;10.18;;;1.80;;
20669;SDS011;10494;50.868;4.180;2022-10-16T15:10:18;5.40;;;1.60;;
20669;SDS011;10494;50.868;4.180;2022-10-16T15:12:46;7.13;;;1.38;;
20669;SDS011;10494;50.868;4.180;2022-10-16T15:17:50;8.43;;;1.50;;
20669;SDS011;10494;50.868;4.180;2022-10-16T15:20:21;7.60;;;1.35;;
20669;SDS011;10494;50.868;4.180;2022-10-16T15:22:48;2.58;;;1.10;;
20669;SDS011;10494;50.868;4.180;2022-10-16T15:25:26;10.05;;;1.80;;
20669;SDS011;10494;50.868;4.180;2022-10-16T15:27:59;4.30;;;1.23;;
20669;SDS011;10494;50.868;4.180;2022-10-16T15:30:25;16.98;;;1.90;;
20669;SDS011;10494;50.868;4.180;2022-10-16T15:32:51;12.13;;;1.73;;
20669;SDS011;10494;50.868;4.180;2022-10-16T15:35:17;20.80;;;1.70;;
20669;SDS011;10494;50.868;4.180;2022-10-16T15:37:43;6.88;;;1.35;;
20669;SDS011;10494;50.868;4.180;2022-10-16T15:40:10;9.65;;;1.40;;
20669;SDS011;10494;50.868;4.180;2022-10-16T15:42:35;11.77;;;1.30;;
20669;SDS011;10494;50.868;4.180;2022-10-16T15:45:01;8.63;;;1.90;;
20669;SDS011;10494;50.868;4.180;2022-10-16T15:47:28;6.40;;;1.80;;
20669;SDS011;10494;50.868;4.180;2022-10-16T15:49:53;4.32;;;1.40;;
20669;SDS011;10494;50.868;4.180;2022-10-16T15:52:19;3.55;;;1.27;;
20669;SDS011;10494;50.868;4.180;2022-10-16T15:54:44;5.43;;;1.70;;
20669;SDS011;10494;50.868;4.180;2022-10-16T15:57:10;11.75;;;1.67;;
20669;SDS011;10494;50.868;4.180;2022-10-16T15:59:35;7.90;;;2.40;;
20669;SDS011;10494;50.868;4.180;2022-10-16T16:02:01;5.75;;;2.05;;
20669;SDS011;10494;50.868;4.180;2022-10-16T16:04:29;11.18;;;2.22;;
20669;SDS011;10494;50.868;4.180;2022-10-16T16:06:55;6.40;;;1.92;;
20669;SDS011;10494;50.868;4.180;2022-10-16T16:09:20;5.47;;;1.58;;
20669;SDS011;10494;50.868;4.180;2022-10-16T16:11:46;8.32;;;1.90;;
20669;SDS011;10494;50.868;4.180;2022-10-16T16:14:12;11.65;;;2.35;;
20669;SDS011;10494;50.868;4.180;2022-10-16T16:16:38;14.93;;;2.80;;
20669;SDS011;10494;50.868;4.180;2022-10-16T16:19:04;8.85;;;3.97;;
20669;SDS011;10494;50.868;4.180;2022-10-16T16:21:32;7.05;;;2.35;;
20669;SDS011;10494;50.868;4.180;2022-10-16T16:23:58;8.15;;;2.22;;
20669;SDS011;10494;50.868;4.180;2022-10-16T16:26:25;10.07;;;2.38;;
20669;SDS011;10494;50.868;4.180;2022-10-16T16:28:51;4.95;;;2.20;;
20669;SDS011;10494;50.868;4.180;2022-10-16T16:31:18;8.80;;;2.40;;
20669;SDS011;10494;50.868;4.180;2022-10-16T16:33:44;8.82;;;2.53;;
20669;SDS011;10494;50.868;4.180;2022-10-16T16:36:10;12.50;;;3.00;;
20669;SDS011;10494;50.868;4.180;2022-10-16T16:38:36;28.88;;;4.82;;
20669;SDS011;10494;50.868;4.180;2022-10-16T16:41:15;9.02;;;2.90;;
20669;SDS011;10494;50.868;4.180;2022-10-16T16:43:42;9.10;;;2.97;;
20669;SDS011;10494;50.868;4.180;2022-10-16T16:46:07;9.73;;;3.95;;
20669;SDS011;10494;50.868;4.180;2022-10-16T16:48:33;10.07;;;3.05;;
20669;SDS011;10494;50.868;4.180;2022-10-16T16:51:05;8.55;;;3.38;;
20669;SDS011;10494;50.868;4.180;2022-10-16T16:53:35;10.48;;;3.65;;
20669;SDS011;10494;50.868;4.180;2022-10-16T16:56:02;10.23;;;4.57;;
20669;SDS011;10494;50.868;4.180;2022-10-16T16:58:29;8.88;;;3.72;;
20669;SDS011;10494;50.868;4.180;2022-10-16T17:00:55;8.88;;;2.47;;
20669;SDS011;10494;50.868;4.180;2022-10-16T17:03:21;7.63;;;1.92;;
20669;SDS011;10494;50.868;4.180;2022-10-16T17:05:54;4.40;;;2.20;;
20669;SDS011;10494;50.868;4.180;2022-10-16T17:08:21;7.20;;;2.95;;
20669;SDS011;10494;50.868;4.180;2022-10-16T17:10:46;7.45;;;2.72;;
20669;SDS011;10494;50.868;4.180;2022-10-16T17:13:17;7.50;;;3.03;;